LHBS weather

Budaörs Airfield
Budaörs, Budapest, Hungary

Public forecast

Using degrees Celsius for public forecast. Weather courtesy of forecast.io.

METAR (pilot weather report)

Closest report is Budapest Liszt Ferenc International Airport, 11.5 nm (21.2 km) E. Retrieved 2019/09/15 12:30 UTC (22 minutes ago):

LHBP 151230Z 22006KT 170V280 CAVOK 22/10 Q1025 NOSIG

TAF (pilot weather forecast)

Closest forecast is Budapest Liszt Ferenc International Airport, 11.5 nm (21.2 km) E. Retrieved 2019/09/15 12:27 UTC (25 minutes ago):

TAF TAF LHBP 151115Z 1512/1612 21006KT CAVOK BECMG 1516/1518 VRB03KT BECMG 1608/1610 27008KT